Portada
METAR-TAF:

METAR-TAF

Aeropuertos :

Casino, Australia

latitud: 28-52-39S, longitud: 153-03-07E, altitud: 21 m

Observación

El informe se hizo hace 1 hora y 2 minutos, a las 16:00 UTC
Viento 3 kt del oeste-noroeste
Temperatura 14°C
Humedad 94%
Presión 1019 hPa

METAR: YCAS 271600Z AUTO 30003KT //// // ////// 14/13 Q1019

Hora: 03:02 (17:02 UTC)


TAF: falta

Observaciones y pronósticos meteorológicos de más de 4000 aeropuertos (mensajes METAR y TAF).

Los puntos amarillos y rojos representan las estaciones disponibles.

Ponga el ratón en el punto deseado para ver el nombre de la estación.

Haga clic para ver las observaciones y los pronósticos meteorológicos.

Para cambiar el mapa : haga clic en los botones verdes con una cruz de color negro para hacer un zoom, en el botón verde con un guión para alejar o en las flechas verdes para mapas adyacentes.


METAR-TAF: